CYMX

Montreal International (Mirabel) Airport

Montréal, Quebec, Canada
METAR CYMX 092100Z 23009G16KT 200V270 12SM -SN DRSN SCT027 BKN038 M02/M06 A3007 RMK SC3SC4 SLP192
Observed Flight Rules
Dec-9 @ 21:00 UTC (41 minutes ago) Visual Flight Rules
Wind Visibility Clouds Conditions
230° at 9 knots
 Gusting to 16 knots
12 miles
  • Scattered at 2,700' AGL
  • Broken at 3,800' AGL
  • Light Snow
  • Low drifting
  • Snow
Temperatures Readings
Current -2°C / 28°F
Dewpoint -6°C / 21°F
Humidity 74%
Altimeter 30.07" Hg
Pressure 1019.2 hPa
Elevation 82
METAR CYMX 092100Z 23009G16KT 200V270 12SM -SN DRSN SCT027 BKN038 M02/M06 A3007 RMK SC3SC4 SLP192
Observed Flight Rules
Dec-9 @ 21:00 UTC
(41 minutes ago)
VFR
Wind Visibility
230° at 9 knots
 Gusting to 16 knots
12 miles
Clouds
  • Scattered at 2,700' AGL
  • Broken at 3,800' AGL
Conditions
  • Light Snow
  • Low drifting
  • Snow
Temperature Dewpoint
-2°C / 28°F -6°C / 21°F
Humidity Altimeter Pressure
74% 30.07" Hg 1019.2 hPa